Forside
METAR-TAF:

METAR-TAF

Lufthavne :

Auckland, New Zealand

Breddekreds: 37-01S, længdekreds: 174-48E, højde: 7 m

Aktuelle vejr

Denne rapport blev lavet for 22 minutter siden, kl. 03:00 UTC
Vind 10 kt fra sydvest
Temperatur 20°C
Fugtighed 60%
Tryk 1015 hPa
Sigt 10 km eller mere

METAR: NZAA 170300Z AUTO 22010KT 9999 OVC060/// 20/12 Q1015 NOSIG

Tid: 16:22 (03:22 UTC)

Vejrudsigter

Denne rapport blev lavet for 4 timer og 15 minutter siden, kl. 23:07 UTC
Foreløbig gælder fra 17 på 00 UTC til 18 på 00 UTC
Vind 10 kt fra sydvest
Sigt 10 km eller mere
Spredte skyer i en højde af 4000 ft
ændring
fra 17 på 06 UTC til 17 på 08 UTC
Vind 2 kt fra varierende retninger

TAF: NZAA 162307Z 1700/1800 22010KT 9999 SCT040 BECMG 1706/1708 VRB02KT

Vejrobservationer og prognoser fra mere end 4000 lufthavne (METAR og TAF).

De gule og røde prikker repræsenterer de meteorologiske stationer.

Flyt musen over at se navnet på stationen.

Så klik over at se vejr observationer og prognoser.

At skifte det kort: Klik på de grønne knapper med et sort kors for at zoome ind; på den grønne knap med en bindestreg for at zoome ud; eller på de grønne pile for tilstødende kort.


METAR-TAF: